^^
Station Historical Data
Daily Summary for March 31, 2017 Units:  Both    English   Metric
« Previous Day
Next Day »
Daily Weekly Monthly Yearly Custom
  High: Low: Average:
Temperature: 83.7 °F /  28.7 °C 52.7 °F /  11.5 °C 67.8 °F /  19.9 °C
Dew Point: 45.1 °F /  7.3 °C 34.0 °F /  1.1 °C 40.2 °F /  4.6 °C
Humidity: 63% 17% 40%
Wind Speed: 14.1mph /  22.7km/h - 1.6mph /  2.6km/h
Wind Gust: 16.0mph /  25.7km/h - -
Wind- - East
Pressure: 30.46 in /  1031.4 hPa 30.34 in /  1027.3 hPa -
Precipitation: 0.00 in /  0 mm    
Historical Graphs
 
 
Tabular Data for March 31, 2017
Time Temperature Dew Point Pressure Wind Wind Speed Wind Gust Humidity Rainfall Rate (Hourly) solar Conditions
00:05 61.0 °F /  16.1 °C 42.8 °F /  6 °C 30.41in /  1029.7hPa Calm   5.0mph /  8km/h 51% 0.00in /  0mm 0.0 W/m2
00:12 60.8 °F /  16 °C 43.0 °F /  6.1 °C 30.41in /  1029.7hPa Calm   3.0mph /  4.8km/h 52% 0.00in /  0mm 0.0 W/m2
00:18 60.6 °F /  15.9 °C 43.0 °F /  6.1 °C 30.41in /  1029.7hPa Calm   3.0mph /  4.8km/h 52% 0.00in /  0mm 0.0 W/m2
00:24 60.3 °F /  15.7 °C 42.6 °F /  5.9 °C 30.41in /  1029.7hPa Calm   2.0mph /  3.2km/h 52% 0.00in /  0mm 0.0 W/m2
00:30 60.3 °F /  15.7 °C 42.6 °F /  5.9 °C 30.41in /  1029.7hPa ENE 2.0mph /  3.2km/h 3.0mph /  4.8km/h 52% 0.00in /  0mm 0.0 W/m2
00:36 60.1 °F /  15.6 °C 42.4 °F /  5.8 °C 30.41in /  1029.7hPa Calm   3.0mph /  4.8km/h 52% 0.00in /  0mm 0.0 W/m2
00:42 59.7 °F /  15.4 °C 42.1 °F /  5.6 °C 30.41in /  1029.7hPa Calm   3.0mph /  4.8km/h 52% 0.00in /  0mm 0.0 W/m2
00:48 59.7 °F /  15.4 °C 42.1 °F /  5.6 °C 30.40in /  1029.3hPa East 2.0mph /  3.2km/h 4.0mph /  6.4km/h 52% 0.00in /  0mm 0.0 W/m2
00:54 59.5 °F /  15.3 °C 41.9 °F /  5.5 °C 30.41in /  1029.7hPa ENE 0.9mph /  1.4km/h 2.0mph /  3.2km/h 52% 0.00in /  0mm 0.0 W/m2
01:00 59.4 °F /  15.2 °C 41.7 °F /  5.4 °C 30.40in /  1029.3hPa Calm   2.0mph /  3.2km/h 52% 0.00in /  0mm 0.0 W/m2
01:06 59.2 °F /  15.1 °C 42.1 °F /  5.6 °C 30.40in /  1029.3hPa Calm   2.0mph /  3.2km/h 53% 0.00in /  0mm 0.0 W/m2
01:13 59.2 °F /  15.1 °C 42.1 °F /  5.6 °C 30.40in /  1029.3hPa Calm   4.0mph /  6.4km/h 53% 0.00in /  0mm 0.0 W/m2
01:19 59.0 °F /  15 °C 41.9 °F /  5.5 °C 30.40in /  1029.3hPa East 0.9mph /  1.4km/h 5.0mph /  8km/h 53% 0.00in /  0mm 0.0 W/m2
01:25 58.8 °F /  14.9 °C 41.7 °F /  5.4 °C 30.40in /  1029.3hPa Calm   4.0mph /  6.4km/h 53% 0.00in /  0mm 0.0 W/m2
01:31 58.6 °F /  14.8 °C 42.1 °F /  5.6 °C 30.40in /  1029.3hPa ENE 0.9mph /  1.4km/h 3.0mph /  4.8km/h 54% 0.00in /  0mm 0.0 W/m2
01:37 58.6 °F /  14.8 °C 42.1 °F /  5.6 °C 30.40in /  1029.3hPa East 0.9mph /  1.4km/h 3.0mph /  4.8km/h 54% 0.00in /  0mm 0.0 W/m2
01:43 58.5 °F /  14.7 °C 42.4 °F /  5.8 °C 30.40in /  1029.3hPa Calm   2.0mph /  3.2km/h 55% 0.00in /  0mm 0.0 W/m2
01:49 58.3 °F /  14.6 °C 42.3 °F /  5.7 °C 30.40in /  1029.3hPa Calm   3.0mph /  4.8km/h 55% 0.00in /  0mm 0.0 W/m2
01:55 57.9 °F /  14.4 °C 41.9 °F /  5.5 °C 30.40in /  1029.3hPa ESE 0.9mph /  1.4km/h 3.0mph /  4.8km/h 55% 0.00in /  0mm 0.0 W/m2
02:01 57.9 °F /  14.4 °C 41.9 °F /  5.5 °C 30.40in /  1029.3hPa ESE 2.9mph /  4.7km/h 3.0mph /  4.8km/h 55% 0.00in /  0mm 0.0 W/m2
02:08 57.7 °F /  14.3 °C 42.1 °F /  5.6 °C 30.40in /  1029.3hPa East 2.0mph /  3.2km/h 3.0mph /  4.8km/h 56% 0.00in /  0mm 0.0 W/m2
02:14 57.6 °F /  14.2 °C 41.9 °F /  5.5 °C 30.40in /  1029.3hPa East 0.9mph /  1.4km/h 3.0mph /  4.8km/h 56% 0.00in /  0mm 0.0 W/m2
02:20 57.6 °F /  14.2 °C 41.9 °F /  5.5 °C 30.40in /  1029.3hPa Calm   2.0mph /  3.2km/h 56% 0.00in /  0mm 0.0 W/m2
02:26 57.4 °F /  14.1 °C 41.9 °F /  5.5 °C 30.40in /  1029.3hPa Calm   2.0mph /  3.2km/h 56% 0.00in /  0mm 0.0 W/m2
02:32 57.4 °F /  14.1 °C 41.4 °F /  5.2 °C 30.40in /  1029.3hPa ENE 0.9mph /  1.4km/h 1.0mph /  1.6km/h 55% 0.00in /  0mm 0.0 W/m2
02:38 57.4 °F /  14.1 °C 41.4 °F /  5.2 °C 30.40in /  1029.3hPa Calm   1.0mph /  1.6km/h 55% 0.00in /  0mm 0.0 W/m2
02:44 57.4 °F /  14.1 °C 41.4 °F /  5.2 °C 30.40in /  1029.3hPa Calm   1.0mph /  1.6km/h 55% 0.00in /  0mm 0.0 W/m2
02:50 57.4 °F /  14.1 °C 41.9 °F /  5.5 °C 30.40in /  1029.3hPa Calm     56% 0.00in /  0mm 0.0 W/m2
02:57 57.2 °F /  14 °C 41.2 °F /  5.1 °C 30.40in /  1029.3hPa Calm     55% 0.00in /  0mm 0.0 W/m2
03:03 57.2 °F /  14 °C 41.2 °F /  5.1 °C 30.40in /  1029.3hPa NE 0.9mph /  1.4km/h 1.0mph /  1.6km/h 55% 0.00in /  0mm 0.0 W/m2
03:09 57.2 °F /  14 °C 41.2 °F /  5.1 °C 30.40in /  1029.3hPa Calm   1.0mph /  1.6km/h 55% 0.00in /  0mm 0.0 W/m2
03:15 57.2 °F /  14 °C 41.2 °F /  5.1 °C 30.40in /  1029.3hPa Calm     55% 0.00in /  0mm 0.0 W/m2
03:21 57.0 °F /  13.9 °C 41.0 °F /  5 °C 30.40in /  1029.3hPa ENE 0.9mph /  1.4km/h 1.0mph /  1.6km/h 55% 0.00in /  0mm 0.0 W/m2
03:27 57.0 °F /  13.9 °C 41.0 °F /  5 °C 30.41in /  1029.7hPa Calm   1.0mph /  1.6km/h 55% 0.00in /  0mm 0.0 W/m2
03:34 56.8 °F /  13.8 °C 40.8 °F /  4.9 °C 30.41in /  1029.7hPa Calm   1.0mph /  1.6km/h 55% 0.00in /  0mm 0.0 W/m2
03:40 56.8 °F /  13.8 °C 40.8 °F /  4.9 °C 30.40in /  1029.3hPa ENE 0.9mph /  1.4km/h 1.0mph /  1.6km/h 55% 0.00in /  0mm 0.0 W/m2
03:46 56.7 °F /  13.7 °C 41.2 °F /  5.1 °C 30.40in /  1029.3hPa Calm   3.0mph /  4.8km/h 56% 0.00in /  0mm 0.0 W/m2
03:52 56.5 °F /  13.6 °C 40.5 °F /  4.7 °C 30.40in /  1029.3hPa Calm   2.0mph /  3.2km/h 55% 0.00in /  0mm 0.0 W/m2
03:58 56.7 °F /  13.7 °C 41.2 °F /  5.1 °C 30.40in /  1029.3hPa Calm   1.0mph /  1.6km/h 56% 0.00in /  0mm 0.0 W/m2
04:04 56.7 °F /  13.7 °C 41.2 °F /  5.1 °C 30.40in /  1029.3hPa Calm   1.0mph /  1.6km/h 56% 0.00in /  0mm 0.0 W/m2
04:10 56.5 °F /  13.6 °C 41.0 °F /  5 °C 30.40in /  1029.3hPa ENE 0.9mph /  1.4km/h 1.0mph /  1.6km/h 56% 0.00in /  0mm 0.0 W/m2
04:17 56.5 °F /  13.6 °C 41.0 °F /  5 °C 30.40in /  1029.3hPa Calm   1.0mph /  1.6km/h 56% 0.00in /  0mm 0.0 W/m2
04:23 56.1 °F /  13.4 °C 40.6 °F /  4.8 °C 30.40in /  1029.3hPa Calm   1.0mph /  1.6km/h 56% 0.00in /  0mm 0.0 W/m2
04:29 56.1 °F /  13.4 °C 40.6 °F /  4.8 °C 30.40in /  1029.3hPa Calm   1.0mph /  1.6km/h 56% 0.00in /  0mm 0.0 W/m2
04:37 55.9 °F /  13.3 °C 40.5 °F /  4.7 °C 30.40in /  1029.3hPa NE 0.9mph /  1.4km/h 3.0mph /  4.8km/h 56% 0.00in /  0mm 0.0 W/m2
04:43 55.8 °F /  13.2 °C 40.3 °F /  4.6 °C 30.40in /  1029.3hPa NE 0.9mph /  1.4km/h 1.0mph /  1.6km/h 56% 0.00in /  0mm 0.0 W/m2
04:49 55.9 °F /  13.3 °C 39.9 °F /  4.4 °C 30.40in /  1029.3hPa Calm   2.0mph /  3.2km/h 55% 0.00in /  0mm 0.0 W/m2
04:55 56.1 °F /  13.4 °C 39.7 °F /  4.3 °C 30.40in /  1029.3hPa NE 2.0mph /  3.2km/h 2.0mph /  3.2km/h 54% 0.00in /  0mm 0.0 W/m2
05:01 56.1 °F /  13.4 °C 39.7 °F /  4.3 °C 30.40in /  1029.3hPa Calm   1.0mph /  1.6km/h 54% 0.00in /  0mm 0.0 W/m2
05:08 56.3 °F /  13.5 °C 39.9 °F /  4.4 °C 30.40in /  1029.3hPa Calm   4.0mph /  6.4km/h 54% 0.00in /  0mm 0.0 W/m2
05:14 56.5 °F /  13.6 °C 40.1 °F /  4.5 °C 30.40in /  1029.3hPa Calm   3.0mph /  4.8km/h 54% 0.00in /  0mm 0.0 W/m2
05:20 56.3 °F /  13.5 °C 39.9 °F /  4.4 °C 30.40in /  1029.3hPa NE 0.9mph /  1.4km/h 3.0mph /  4.8km/h 54% 0.00in /  0mm 0.0 W/m2
05:26 56.1 °F /  13.4 °C 39.7 °F /  4.3 °C 30.40in /  1029.3hPa NE 0.9mph /  1.4km/h 2.0mph /  3.2km/h 54% 0.00in /  0mm 0.0 W/m2
05:32 56.1 °F /  13.4 °C 39.7 °F /  4.3 °C 30.41in /  1029.7hPa ENE 4.0mph /  6.4km/h 4.0mph /  6.4km/h 54% 0.00in /  0mm 0.0 W/m2
05:38 55.9 °F /  13.3 °C 39.6 °F /  4.2 °C 30.41in /  1029.7hPa Calm   3.0mph /  4.8km/h 54% 0.00in /  0mm 0.0 W/m2
05:44 55.8 °F /  13.2 °C 39.9 °F /  4.4 °C 30.41in /  1029.7hPa Calm   2.0mph /  3.2km/h 55% 0.00in /  0mm 0.0 W/m2
05:50 55.6 °F /  13.1 °C 39.7 °F /  4.3 °C 30.41in /  1029.7hPa ENE 0.9mph /  1.4km/h 2.0mph /  3.2km/h 55% 0.00in /  0mm 0.0 W/m2
05:57 55.2 °F /  12.9 °C 39.7 °F /  4.3 °C 30.41in /  1029.7hPa Calm   3.0mph /  4.8km/h 56% 0.00in /  0mm 0.0 W/m2
06:03 55.0 °F /  12.8 °C 39.6 °F /  4.2 °C 30.41in /  1029.7hPa Calm   1.0mph /  1.6km/h 56% 0.00in /  0mm 0.0 W/m2
06:09 54.9 °F /  12.7 °C 39.9 °F /  4.4 °C 30.41in /  1029.7hPa Calm     57% 0.00in /  0mm 0.0 W/m2
06:15 54.5 °F /  12.5 °C 39.6 °F /  4.2 °C 30.41in /  1029.7hPa Calm   1.0mph /  1.6km/h 57% 0.00in /  0mm 0.0 W/m2
06:21 54.1 °F /  12.3 °C 39.2 °F /  4 °C 30.42in /  1030hPa Calm   1.0mph /  1.6km/h 57% 0.00in /  0mm 0.0 W/m2
06:27 54.1 °F /  12.3 °C 39.2 °F /  4 °C 30.42in /  1030hPa ENE 0.9mph /  1.4km/h 3.0mph /  4.8km/h 57% 0.00in /  0mm 0.0 W/m2
06:33 54.0 °F /  12.2 °C 39.6 °F /  4.2 °C 30.42in /  1030hPa Calm   1.0mph /  1.6km/h 58% 0.00in /  0mm 0.0 W/m2
06:40 54.0 °F /  12.2 °C 39.9 °F /  4.4 °C 30.42in /  1030hPa Calm   3.0mph /  4.8km/h 59% 0.00in /  0mm 0.0 W/m2
06:46 53.8 °F /  12.1 °C 39.7 °F /  4.3 °C 30.42in /  1030hPa Calm   1.0mph /  1.6km/h 59% 0.00in /  0mm 0.0 W/m2
06:52 53.4 °F /  11.9 °C 39.4 °F /  4.1 °C 30.42in /  1030hPa Calm   3.0mph /  4.8km/h 59% 0.00in /  0mm 0.0 W/m2
06:58 53.2 °F /  11.8 °C 39.2 °F /  4 °C 30.42in /  1030hPa Calm   3.0mph /  4.8km/h 59% 0.00in /  0mm 0.0 W/m2
07:04 53.1 °F /  11.7 °C 39.6 °F /  4.2 °C 30.43in /  1030.4hPa Calm   2.0mph /  3.2km/h 60% 0.00in /  0mm 5.0 W/m2
07:10 53.1 °F /  11.7 °C 39.6 °F /  4.2 °C 30.43in /  1030.4hPa NE 0.9mph /  1.4km/h 4.0mph /  6.4km/h 60% 0.00in /  0mm 7.0 W/m2
07:16 52.9 °F /  11.6 °C 39.7 °F /  4.3 °C 30.43in /  1030.4hPa Calm   3.0mph /  4.8km/h 61% 0.00in /  0mm 11.0 W/m2
07:23 52.9 °F /  11.6 °C 39.7 °F /  4.3 °C 30.43in /  1030.4hPa Calm   2.0mph /  3.2km/h 61% 0.00in /  0mm 12.0 W/m2
07:29 52.7 °F /  11.5 °C 39.6 °F /  4.2 °C 30.44in /  1030.7hPa Calm   1.0mph /  1.6km/h 61% 0.00in /  0mm 14.0 W/m2
07:35 52.7 °F /  11.5 °C 40.1 °F /  4.5 °C 30.44in /  1030.7hPa Calm     62% 0.00in /  0mm 16.0 W/m2
07:41 52.7 °F /  11.5 °C 40.5 °F /  4.7 °C 30.44in /  1030.7hPa Calm   2.0mph /  3.2km/h 63% 0.00in /  0mm 18.0 W/m2
07:47 53.1 °F /  11.7 °C 40.8 °F /  4.9 °C 30.44in /  1030.7hPa Calm   1.0mph /  1.6km/h 63% 0.00in /  0mm 19.0 W/m2
07:53 53.2 °F /  11.8 °C 41.0 °F /  5 °C 30.44in /  1030.7hPa SE 0.9mph /  1.4km/h 1.0mph /  1.6km/h 63% 0.00in /  0mm 21.0 W/m2
07:59 53.8 °F /  12.1 °C 41.5 °F /  5.3 °C 30.45in /  1031hPa Calm   2.0mph /  3.2km/h 63% 0.00in /  0mm 23.0 W/m2
08:06 54.1 °F /  12.3 °C 41.9 °F /  5.5 °C 30.45in /  1031hPa Calm   1.0mph /  1.6km/h 63% 0.00in /  0mm 23.0 W/m2
08:12 54.7 °F /  12.6 °C 42.3 °F /  5.7 °C 30.45in /  1031hPa Calm   2.0mph /  3.2km/h 63% 0.00in /  0mm 25.0 W/m2
08:18 55.6 °F /  13.1 °C 42.8 °F /  6 °C 30.45in /  1031hPa ESE 0.9mph /  1.4km/h 2.0mph /  3.2km/h 62% 0.00in /  0mm 26.0 W/m2
08:24 56.5 °F /  13.6 °C 42.8 °F /  6 °C 30.45in /  1031hPa SE 2.0mph /  3.2km/h 2.0mph /  3.2km/h 60% 0.00in /  0mm 30.0 W/m2
08:30 57.6 °F /  14.2 °C 43.3 °F /  6.3 °C 30.46in /  1031.4hPa Calm   3.0mph /  4.8km/h 59% 0.00in /  0mm 28.0 W/m2
08:36 58.8 °F /  14.9 °C 43.2 °F /  6.2 °C 30.46in /  1031.4hPa ENE 4.0mph /  6.4km/h 8.0mph /  12.9km/h 56% 0.00in /  0mm 28.0 W/m2
08:43 60.4 °F /  15.8 °C 43.2 °F /  6.2 °C 30.46in /  1031.4hPa East 2.0mph /  3.2km/h 7.0mph /  11.3km/h 53% 0.00in /  0mm 30.0 W/m2
08:49 61.5 °F /  16.4 °C 43.2 °F /  6.2 °C 30.46in /  1031.4hPa Calm   4.0mph /  6.4km/h 51% 0.00in /  0mm 30.0 W/m2
08:55 62.4 °F /  16.9 °C 44.1 °F /  6.7 °C 30.46in /  1031.4hPa ENE 0.9mph /  1.4km/h 4.0mph /  6.4km/h 51% 0.00in /  0mm 30.0 W/m2
09:01 63.1 °F /  17.3 °C 44.2 °F /  6.8 °C 30.46in /  1031.4hPa East 0.9mph /  1.4km/h 5.0mph /  8km/h 50% 0.00in /  0mm 32.0 W/m2
09:07 63.9 °F /  17.7 °C 43.7 °F /  6.5 °C 30.46in /  1031.4hPa ENE 2.0mph /  3.2km/h 9.0mph /  14.5km/h 48% 0.00in /  0mm 32.0 W/m2
09:13 64.6 °F /  18.1 °C 43.9 °F /  6.6 °C 30.46in /  1031.4hPa Calm   6.0mph /  9.7km/h 47% 0.00in /  0mm 35.0 W/m2
09:19 65.3 °F /  18.5 °C 44.6 °F /  7 °C 30.46in /  1031.4hPa NE 6.0mph /  9.7km/h 6.0mph /  9.7km/h 47% 0.00in /  0mm 33.0 W/m2
09:26 66.2 °F /  19 °C 44.2 °F /  6.8 °C 30.46in /  1031.4hPa Calm   7.0mph /  11.3km/h 45% 0.00in /  0mm 35.0 W/m2
09:32 67.1 °F /  19.5 °C 44.4 °F /  6.9 °C 30.46in /  1031.4hPa NNW 4.9mph /  7.9km/h 12.0mph /  19.3km/h 44% 0.00in /  0mm 37.0 W/m2
09:38 67.8 °F /  19.9 °C 43.9 °F /  6.6 °C 30.46in /  1031.4hPa NE 2.9mph /  4.7km/h 9.0mph /  14.5km/h 42% 0.00in /  0mm 39.0 W/m2
09:44 68.5 °F /  20.3 °C 44.6 °F /  7 °C 30.46in /  1031.4hPa ENE 4.9mph /  7.9km/h 7.0mph /  11.3km/h 42% 0.00in /  0mm 90.0 W/m2
09:50 69.3 °F /  20.7 °C 44.6 °F /  7 °C 30.46in /  1031.4hPa NE 2.9mph /  4.7km/h 7.0mph /  11.3km/h 41% 0.00in /  0mm 621.0 W/m2
09:56 70.2 °F /  21.2 °C 44.1 °F /  6.7 °C 30.46in /  1031.4hPa ENE 2.9mph /  4.7km/h 7.0mph /  11.3km/h 39% 0.00in /  0mm 643.0 W/m2
10:02 71.2 °F /  21.8 °C 43.7 °F /  6.5 °C 30.46in /  1031.4hPa NE 6.0mph /  9.7km/h 9.0mph /  14.5km/h 37% 0.00in /  0mm 663.0 W/m2
10:08 72.0 °F /  22.2 °C 43.5 °F /  6.4 °C 30.46in /  1031.4hPa NE 8.9mph /  14.3km/h 11.0mph /  17.7km/h 36% 0.00in /  0mm 682.0 W/m2
10:14 72.3 °F /  22.4 °C 43.2 °F /  6.2 °C 30.45in /  1031hPa NNW 2.9mph /  4.7km/h 16.0mph /  25.7km/h 35% 0.00in /  0mm 700.0 W/m2
10:20 72.3 °F /  22.4 °C 43.2 °F /  6.2 °C 30.45in /  1031hPa NNE 6.0mph /  9.7km/h 8.0mph /  12.9km/h 35% 0.00in /  0mm 715.0 W/m2
10:26 72.9 °F /  22.7 °C 43.5 °F /  6.4 °C 30.45in /  1031hPa East 4.9mph /  7.9km/h 8.0mph /  12.9km/h 35% 0.00in /  0mm 737.0 W/m2
10:32 73.2 °F /  22.9 °C 43.2 °F /  6.2 °C 30.45in /  1031hPa ENE 6.9mph /  11.1km/h 10.0mph /  16.1km/h 34% 0.00in /  0mm 752.0 W/m2
10:38 73.4 °F /  23 °C 44.1 °F /  6.7 °C 30.45in /  1031hPa East 8.1mph /  13km/h 11.0mph /  17.7km/h 35% 0.00in /  0mm 770.0 W/m2
10:45 73.8 °F /  23.2 °C 42.8 °F /  6 °C 30.46in /  1031.4hPa ENE 2.0mph /  3.2km/h 12.0mph /  19.3km/h 33% 0.00in /  0mm 786.0 W/m2
10:50 74.1 °F /  23.4 °C 43.2 °F /  6.2 °C 30.46in /  1031.4hPa ENE 8.1mph /  13km/h 11.0mph /  17.7km/h 33% 0.00in /  0mm 803.0 W/m2
10:56 74.5 °F /  23.6 °C 41.9 °F /  5.5 °C 30.45in /  1031hPa ENE 6.9mph /  11.1km/h 8.0mph /  12.9km/h 31% 0.00in /  0mm 814.0 W/m2
11:02 74.7 °F /  23.7 °C 42.1 °F /  5.6 °C 30.45in /  1031hPa South 4.9mph /  7.9km/h 8.0mph /  12.9km/h 31% 0.00in /  0mm 828.0 W/m2
11:08 74.8 °F /  23.8 °C 43.0 °F /  6.1 °C 30.45in /  1031hPa East 0.9mph /  1.4km/h 10.0mph /  16.1km/h 32% 0.00in /  0mm 837.0 W/m2
11:14 75.4 °F /  24.1 °C 43.5 °F /  6.4 °C 30.45in /  1031hPa Calm   6.0mph /  9.7km/h 32% 0.00in /  0mm 847.0 W/m2
11:20 75.7 °F /  24.3 °C 44.6 °F /  7 °C 30.45in /  1031hPa ENE 4.0mph /  6.4km/h 8.0mph /  12.9km/h 33% 0.00in /  0mm 860.0 W/m2
11:27 76.3 °F /  24.6 °C 45.1 °F /  7.3 °C 30.44in /  1030.7hPa SE 2.9mph /  4.7km/h 7.0mph /  11.3km/h 33% 0.00in /  0mm 865.0 W/m2
11:33 76.6 °F /  24.8 °C 44.6 °F /  7 °C 30.44in /  1030.7hPa ENE 2.9mph /  4.7km/h 7.0mph /  11.3km/h 32% 0.00in /  0mm 877.0 W/m2
11:41 77.4 °F /  25.2 °C 43.5 °F /  6.4 °C 30.44in /  1030.7hPa SE 2.9mph /  4.7km/h 9.0mph /  14.5km/h 30% 0.00in /  0mm 891.0 W/m2
11:47 77.4 °F /  25.2 °C 41.7 °F /  5.4 °C 30.43in /  1030.4hPa NE 4.0mph /  6.4km/h 13.0mph /  20.9km/h 28% 0.00in /  0mm 898.0 W/m2
11:53 77.4 °F /  25.2 °C 39.7 °F /  4.3 °C 30.43in /  1030.4hPa ESE 6.9mph /  11.1km/h 10.0mph /  16.1km/h 26% 0.00in /  0mm 909.0 W/m2
11:59 77.5 °F /  25.3 °C 41.9 °F /  5.5 °C 30.42in /  1030hPa East 4.0mph /  6.4km/h 10.0mph /  16.1km/h 28% 0.00in /  0mm 912.0 W/m2
12:05 77.7 °F /  25.4 °C 41.0 °F /  5 °C 30.42in /  1030hPa NNE 4.9mph /  7.9km/h 5.0mph /  8km/h 27% 0.00in /  0mm 918.0 W/m2
12:11 77.5 °F /  25.3 °C 41.9 °F /  5.5 °C 30.42in /  1030hPa SE 0.9mph /  1.4km/h 6.0mph /  9.7km/h 28% 0.00in /  0mm 911.0 W/m2
12:17 78.1 °F /  25.6 °C 42.3 °F /  5.7 °C 30.42in /  1030hPa NNE 2.0mph /  3.2km/h 5.0mph /  8km/h 28% 0.00in /  0mm 923.0 W/m2
12:23 78.3 °F /  25.7 °C 41.5 °F /  5.3 °C 30.42in /  1030hPa NNE 8.1mph /  13km/h 12.0mph /  19.3km/h 27% 0.00in /  0mm 928.0 W/m2
12:29 78.6 °F /  25.9 °C 41.9 °F /  5.5 °C 30.42in /  1030hPa NNW 0.9mph /  1.4km/h 7.0mph /  11.3km/h 27% 0.00in /  0mm 926.0 W/m2
12:35 79.0 °F /  26.1 °C 41.2 °F /  5.1 °C 30.41in /  1029.7hPa NNE 2.0mph /  3.2km/h 6.0mph /  9.7km/h 26% 0.00in /  0mm 926.0 W/m2
12:41 79.2 °F /  26.2 °C 40.3 °F /  4.6 °C 30.41in /  1029.7hPa NE 4.9mph /  7.9km/h 10.0mph /  16.1km/h 25% 0.00in /  0mm 933.0 W/m2
12:47 79.2 °F /  26.2 °C 40.3 °F /  4.6 °C 30.41in /  1029.7hPa NE 4.9mph /  7.9km/h 11.0mph /  17.7km/h 25% 0.00in /  0mm 933.0 W/m2
12:53 79.3 °F /  26.3 °C 41.5 °F /  5.3 °C 30.40in /  1029.3hPa SE 6.0mph /  9.7km/h 8.0mph /  12.9km/h 26% 0.00in /  0mm 935.0 W/m2
12:59 79.7 °F /  26.5 °C 39.7 °F /  4.3 °C 30.40in /  1029.3hPa East 4.0mph /  6.4km/h 10.0mph /  16.1km/h 24% 0.00in /  0mm 935.0 W/m2
13:05 80.1 °F /  26.7 °C 41.0 °F /  5 °C 30.39in /  1029hPa NNE 4.0mph /  6.4km/h 10.0mph /  16.1km/h 25% 0.00in /  0mm 932.0 W/m2
13:11 80.2 °F /  26.8 °C 41.2 °F /  5.1 °C 30.39in /  1029hPa NNE 2.0mph /  3.2km/h 11.0mph /  17.7km/h 25% 0.00in /  0mm 925.0 W/m2
13:17 80.1 °F /  26.7 °C 40.1 °F /  4.5 °C 30.39in /  1029hPa East 4.9mph /  7.9km/h 8.0mph /  12.9km/h 24% 0.00in /  0mm 925.0 W/m2
13:23 80.2 °F /  26.8 °C 40.1 °F /  4.5 °C 30.39in /  1029hPa ESE 6.9mph /  11.1km/h 10.0mph /  16.1km/h 24% 0.00in /  0mm 919.0 W/m2
13:29 80.6 °F /  27 °C 38.3 °F /  3.5 °C 30.38in /  1028.7hPa ENE 4.0mph /  6.4km/h 13.0mph /  20.9km/h 22% 0.00in /  0mm 921.0 W/m2
13:36 80.8 °F /  27.1 °C 38.5 °F /  3.6 °C 30.38in /  1028.7hPa NE 4.0mph /  6.4km/h 8.0mph /  12.9km/h 22% 0.00in /  0mm 918.0 W/m2
13:41 80.8 °F /  27.1 °C 38.5 °F /  3.6 °C 30.38in /  1028.7hPa East 14.1mph /  22.7km/h 14.1mph /  22.7km/h 22% 0.00in /  0mm 907.0 W/m2
13:47 81.0 °F /  27.2 °C 38.5 °F /  3.6 °C 30.37in /  1028.3hPa North 12.1mph /  19.5km/h 13.0mph /  20.9km/h 22% 0.00in /  0mm 900.0 W/m2
13:54 81.1 °F /  27.3 °C 38.7 °F /  3.7 °C 30.37in /  1028.3hPa SE 0.9mph /  1.4km/h 7.0mph /  11.3km/h 22% 0.00in /  0mm 891.0 W/m2
14:00 81.3 °F /  27.4 °C 38.8 °F /  3.8 °C 30.37in /  1028.3hPa NNE 6.9mph /  11.1km/h 11.0mph /  17.7km/h 22% 0.00in /  0mm 889.0 W/m2
14:06 81.7 °F /  27.6 °C 37.9 °F /  3.3 °C 30.37in /  1028.3hPa Calm   8.0mph /  12.9km/h 21% 0.00in /  0mm 877.0 W/m2
14:12 81.7 °F /  27.6 °C 39.2 °F /  4 °C 30.37in /  1028.3hPa SE 6.9mph /  11.1km/h 7.0mph /  11.3km/h 22% 0.00in /  0mm 865.0 W/m2
14:18 82.0 °F /  27.8 °C 38.3 °F /  3.5 °C 30.36in /  1028hPa ESE 4.0mph /  6.4km/h 8.0mph /  12.9km/h 21% 0.00in /  0mm 856.0 W/m2
14:24 82.0 °F /  27.8 °C 38.3 °F /  3.5 °C 30.36in /  1028hPa Calm   6.0mph /  9.7km/h 21% 0.00in /  0mm 847.0 W/m2
14:30 82.2 °F /  27.9 °C 39.6 °F /  4.2 °C 30.36in /  1028hPa SE 0.9mph /  1.4km/h 9.0mph /  14.5km/h 22% 0.00in /  0mm 831.0 W/m2
14:36 82.8 °F /  28.2 °C 38.8 °F /  3.8 °C 30.36in /  1028hPa NNE 4.0mph /  6.4km/h 6.0mph /  9.7km/h 21% 0.00in /  0mm 824.0 W/m2
14:42 82.8 °F /  28.2 °C 37.6 °F /  3.1 °C 30.36in /  1028hPa NNE 4.9mph /  7.9km/h 9.0mph /  14.5km/h 20% 0.00in /  0mm 816.0 W/m2
14:48 82.6 °F /  28.1 °C 37.4 °F /  3 °C 30.35in /  1027.7hPa ENE 2.9mph /  4.7km/h 8.0mph /  12.9km/h 20% 0.00in /  0mm 807.0 W/m2
14:54 82.6 °F /  28.1 °C 38.7 °F /  3.7 °C 30.35in /  1027.7hPa SE 8.1mph /  13km/h 9.0mph /  14.5km/h 21% 0.00in /  0mm 779.0 W/m2
15:00 82.8 °F /  28.2 °C 38.8 °F /  3.8 °C 30.35in /  1027.7hPa NNW 2.0mph /  3.2km/h 8.0mph /  12.9km/h 21% 0.00in /  0mm 763.0 W/m2
15:06 82.8 °F /  28.2 °C 38.8 °F /  3.8 °C 30.35in /  1027.7hPa ENE 0.9mph /  1.4km/h 6.0mph /  9.7km/h 21% 0.00in /  0mm 751.0 W/m2
15:12 82.8 °F /  28.2 °C 37.6 °F /  3.1 °C 30.35in /  1027.7hPa NE 4.9mph /  7.9km/h 10.0mph /  16.1km/h 20% 0.00in /  0mm 737.0 W/m2
15:18 82.6 °F /  28.1 °C 37.4 °F /  3 °C 30.35in /  1027.7hPa East 2.9mph /  4.7km/h 9.0mph /  14.5km/h 20% 0.00in /  0mm 726.0 W/m2
15:24 82.2 °F /  27.9 °C 37.2 °F /  2.9 °C 30.35in /  1027.7hPa North 0.9mph /  1.4km/h 7.0mph /  11.3km/h 20% 0.00in /  0mm 705.0 W/m2
15:30 82.2 °F /  27.9 °C 38.5 °F /  3.6 °C 30.35in /  1027.7hPa ENE 4.0mph /  6.4km/h 6.0mph /  9.7km/h 21% 0.00in /  0mm 687.0 W/m2
15:36 82.4 °F /  28 °C 37.2 °F /  2.9 °C 30.35in /  1027.7hPa Calm   5.0mph /  8km/h 20% 0.00in /  0mm 671.0 W/m2
15:42 82.8 °F /  28.2 °C 37.6 °F /  3.1 °C 30.34in /  1027.3hPa SE 2.9mph /  4.7km/h 10.0mph /  16.1km/h 20% 0.00in /  0mm 652.0 W/m2
15:48 83.1 °F /  28.4 °C 37.9 °F /  3.3 °C 30.34in /  1027.3hPa ESE 6.0mph /  9.7km/h 7.0mph /  11.3km/h 20% 0.00in /  0mm 635.0 W/m2
15:54 83.3 °F /  28.5 °C 34.0 °F /  1.1 °C 30.34in /  1027.3hPa NE 2.9mph /  4.7km/h 7.0mph /  11.3km/h 17% 0.00in /  0mm 624.0 W/m2
16:00 82.9 °F /  28.3 °C 36.5 °F /  2.5 °C 30.34in /  1027.3hPa North 2.0mph /  3.2km/h 6.0mph /  9.7km/h 19% 0.00in /  0mm 599.0 W/m2
16:06 83.1 °F /  28.4 °C 36.7 °F /  2.6 °C 30.34in /  1027.3hPa SE 2.0mph /  3.2km/h 4.0mph /  6.4km/h 19% 0.00in /  0mm 578.0 W/m2
16:12 83.1 °F /  28.4 °C 35.2 °F /  1.8 °C 30.34in /  1027.3hPa SE 0.9mph /  1.4km/h 6.0mph /  9.7km/h 18% 0.00in /  0mm 554.0 W/m2
16:18 83.5 °F /  28.6 °C 35.6 °F /  2 °C 30.34in /  1027.3hPa ESE 2.9mph /  4.7km/h 6.0mph /  9.7km/h 18% 0.00in /  0mm 534.0 W/m2
16:26 83.5 °F /  28.6 °C 36.9 °F /  2.7 °C 30.34in /  1027.3hPa Calm   6.0mph /  9.7km/h 19% 0.00in /  0mm 504.0 W/m2
16:32 83.7 °F /  28.7 °C 37.0 °F /  2.8 °C 30.34in /  1027.3hPa ENE 6.9mph /  11.1km/h 8.0mph /  12.9km/h 19% 0.00in /  0mm 483.0 W/m2
16:38 83.7 °F /  28.7 °C 35.6 °F /  2 °C 30.34in /  1027.3hPa North 0.9mph /  1.4km/h 5.0mph /  8km/h 18% 0.00in /  0mm 466.0 W/m2
16:44 83.7 °F /  28.7 °C 34.2 °F /  1.2 °C 30.34in /  1027.3hPa Calm   8.0mph /  12.9km/h 17% 0.00in /  0mm 441.0 W/m2
16:50 83.1 °F /  28.4 °C 36.7 °F /  2.6 °C 30.34in /  1027.3hPa NE 4.0mph /  6.4km/h 7.0mph /  11.3km/h 19% 0.00in /  0mm 418.0 W/m2
16:56 82.9 °F /  28.3 °C 35.1 °F /  1.7 °C 30.34in /  1027.3hPa Calm   4.0mph /  6.4km/h 18% 0.00in /  0mm 396.0 W/m2
17:02 83.1 °F /  28.4 °C 36.7 °F /  2.6 °C 30.34in /  1027.3hPa East 2.0mph /  3.2km/h 5.0mph /  8km/h 19% 0.00in /  0mm 373.0 W/m2
17:08 83.5 °F /  28.6 °C 36.9 °F /  2.7 °C 30.34in /  1027.3hPa SE 0.9mph /  1.4km/h 3.0mph /  4.8km/h 19% 0.00in /  0mm 352.0 W/m2
17:14 83.1 °F /  28.4 °C 36.7 °F /  2.6 °C 30.34in /  1027.3hPa SE 2.9mph /  4.7km/h 4.0mph /  6.4km/h 19% 0.00in /  0mm 325.0 W/m2
17:20 82.8 °F /  28.2 °C 37.6 °F /  3.1 °C 30.34in /  1027.3hPa Calm   3.0mph /  4.8km/h 20% 0.00in /  0mm 302.0 W/m2
17:26 83.1 °F /  28.4 °C 36.7 °F /  2.6 °C 30.34in /  1027.3hPa ESE 4.0mph /  6.4km/h 6.0mph /  9.7km/h 19% 0.00in /  0mm 279.0 W/m2
17:32 83.1 °F /  28.4 °C 36.7 °F /  2.6 °C 30.34in /  1027.3hPa East 2.0mph /  3.2km/h 5.0mph /  8km/h 19% 0.00in /  0mm 255.0 W/m2
17:38 82.9 °F /  28.3 °C 35.1 °F /  1.7 °C 30.34in /  1027.3hPa NE 4.0mph /  6.4km/h 4.0mph /  6.4km/h 18% 0.00in /  0mm 230.0 W/m2
17:44 82.6 °F /  28.1 °C 36.1 °F /  2.3 °C 30.34in /  1027.3hPa SE 0.9mph /  1.4km/h 4.0mph /  6.4km/h 19% 0.00in /  0mm 207.0 W/m2
17:50 82.0 °F /  27.8 °C 35.8 °F /  2.1 °C 30.35in /  1027.7hPa East 0.9mph /  1.4km/h 5.0mph /  8km/h 19% 0.00in /  0mm 185.0 W/m2
17:56 82.2 °F /  27.9 °C 35.8 °F /  2.1 °C 30.35in /  1027.7hPa East 0.9mph /  1.4km/h 5.0mph /  8km/h 19% 0.00in /  0mm 162.0 W/m2
18:02 82.0 °F /  27.8 °C 35.8 °F /  2.1 °C 30.35in /  1027.7hPa SE 0.9mph /  1.4km/h 5.0mph /  8km/h 19% 0.00in /  0mm 128.0 W/m2
18:08 81.7 °F /  27.6 °C 35.4 °F /  1.9 °C 30.35in /  1027.7hPa Calm   8.0mph /  12.9km/h 19% 0.00in /  0mm 67.0 W/m2
18:14 81.1 °F /  27.3 °C 35.1 °F /  1.7 °C 30.35in /  1027.7hPa Calm   4.0mph /  6.4km/h 19% 0.00in /  0mm 32.0 W/m2
18:20 80.2 °F /  26.8 °C 35.6 °F /  2 °C 30.35in /  1027.7hPa Calm   2.0mph /  3.2km/h 20% 0.00in /  0mm 25.0 W/m2
18:26 79.9 °F /  26.6 °C 36.5 °F /  2.5 °C 30.36in /  1028hPa Calm   3.0mph /  4.8km/h 21% 0.00in /  0mm 19.0 W/m2
18:32 79.2 °F /  26.2 °C 37.0 °F /  2.8 °C 30.36in /  1028hPa Calm   2.0mph /  3.2km/h 22% 0.00in /  0mm 14.0 W/m2
18:38 78.4 °F /  25.8 °C 37.6 °F /  3.1 °C 30.36in /  1028hPa Calm   1.0mph /  1.6km/h 23% 0.00in /  0mm 11.0 W/m2
18:44 77.9 °F /  25.5 °C 38.1 °F /  3.4 °C 30.36in /  1028hPa Calm   2.0mph /  3.2km/h 24% 0.00in /  0mm 7.0 W/m2
18:50 77.4 °F /  25.2 °C 36.7 °F /  2.6 °C 30.37in /  1028.3hPa Calm   1.0mph /  1.6km/h 23% 0.00in /  0mm 5.0 W/m2
18:56 76.6 °F /  24.8 °C 37.2 °F /  2.9 °C 30.37in /  1028.3hPa Calm     24% 0.00in /  0mm 0.0 W/m2
19:02 76.3 °F /  24.6 °C 37.9 °F /  3.3 °C 30.36in /  1028hPa Calm     25% 0.00in /  0mm 0.0 W/m2
19:08 75.6 °F /  24.2 °C 39.2 °F /  4 °C 30.37in /  1028.3hPa Calm     27% 0.00in /  0mm 0.0 W/m2
19:14 74.7 °F /  23.7 °C 38.5 °F /  3.6 °C 30.37in /  1028.3hPa Calm     27% 0.00in /  0mm 0.0 W/m2
19:20 73.9 °F /  23.3 °C 38.8 °F /  3.8 °C 30.37in /  1028.3hPa Calm     28% 0.00in /  0mm 0.0 W/m2
19:26 73.2 °F /  22.9 °C 38.1 °F /  3.4 °C 30.37in /  1028.3hPa Calm     28% 0.00in /  0mm 0.0 W/m2
19:32 72.1 °F /  22.3 °C 38.1 °F /  3.4 °C 30.37in /  1028.3hPa Calm     29% 0.00in /  0mm 0.0 W/m2
19:38 71.4 °F /  21.9 °C 38.3 °F /  3.5 °C 30.37in /  1028.3hPa Calm     30% 0.00in /  0mm 0.0 W/m2
19:44 71.1 °F /  21.7 °C 38.1 °F /  3.4 °C 30.37in /  1028.3hPa Calm     30% 0.00in /  0mm 0.0 W/m2
19:50 70.5 °F /  21.4 °C 38.5 °F /  3.6 °C 30.37in /  1028.3hPa Calm     31% 0.00in /  0mm 0.0 W/m2
19:56 70.0 °F /  21.1 °C 37.9 °F /  3.3 °C 30.38in /  1028.7hPa Calm     31% 0.00in /  0mm 0.0 W/m2
20:02 69.6 °F /  20.9 °C 38.5 °F /  3.6 °C 30.38in /  1028.7hPa Calm     32% 0.00in /  0mm 0.0 W/m2
20:08 69.3 °F /  20.7 °C 38.8 °F /  3.8 °C 30.38in /  1028.7hPa Calm     33% 0.00in /  0mm 0.0 W/m2
20:14 68.7 °F /  20.4 °C 38.5 °F /  3.6 °C 30.38in /  1028.7hPa Calm     33% 0.00in /  0mm 0.0 W/m2
20:20 68.4 °F /  20.2 °C 38.8 °F /  3.8 °C 30.39in /  1029hPa Calm   1.0mph /  1.6km/h 34% 0.00in /  0mm 0.0 W/m2
20:26 68.2 °F /  20.1 °C 38.7 °F /  3.7 °C 30.39in /  1029hPa Calm   1.0mph /  1.6km/h 34% 0.00in /  0mm 0.0 W/m2
20:32 67.8 °F /  19.9 °C 39.2 °F /  4 °C 30.39in /  1029hPa Calm   1.0mph /  1.6km/h 35% 0.00in /  0mm 0.0 W/m2
20:38 67.5 °F /  19.7 °C 39.6 °F /  4.2 °C 30.39in /  1029hPa East 0.9mph /  1.4km/h 1.0mph /  1.6km/h 36% 0.00in /  0mm 0.0 W/m2
20:44 67.1 °F /  19.5 °C 39.9 °F /  4.4 °C 30.39in /  1029hPa Calm   2.0mph /  3.2km/h 37% 0.00in /  0mm 0.0 W/m2
20:50 66.7 °F /  19.3 °C 39.6 °F /  4.2 °C 30.39in /  1029hPa Calm   1.0mph /  1.6km/h 37% 0.00in /  0mm 0.0 W/m2
20:56 66.4 °F /  19.1 °C 39.9 °F /  4.4 °C 30.40in /  1029.3hPa NE 0.9mph /  1.4km/h 2.0mph /  3.2km/h 38% 0.00in /  0mm 0.0 W/m2
21:02 66.0 °F /  18.9 °C 40.3 °F /  4.6 °C 30.40in /  1029.3hPa East 2.0mph /  3.2km/h 3.0mph /  4.8km/h 39% 0.00in /  0mm 0.0 W/m2
21:08 65.7 °F /  18.7 °C 40.6 °F /  4.8 °C 30.40in /  1029.3hPa Calm   2.0mph /  3.2km/h 40% 0.00in /  0mm 0.0 W/m2
21:14 65.5 °F /  18.6 °C 41.2 °F /  5.1 °C 30.40in /  1029.3hPa Calm   2.0mph /  3.2km/h 41% 0.00in /  0mm 0.0 W/m2
21:21 64.9 °F /  18.3 °C 40.6 °F /  4.8 °C 30.39in /  1029hPa East 0.9mph /  1.4km/h 1.0mph /  1.6km/h 41% 0.00in /  0mm 0.0 W/m2
21:27 64.8 °F /  18.2 °C 40.5 °F /  4.7 °C 30.39in /  1029hPa Calm   2.0mph /  3.2km/h 41% 0.00in /  0mm 0.0 W/m2
21:32 64.4 °F /  18 °C 40.1 °F /  4.5 °C 30.39in /  1029hPa Calm   2.0mph /  3.2km/h 41% 0.00in /  0mm 0.0 W/m2
21:38 64.2 °F /  17.9 °C 40.6 °F /  4.8 °C 30.40in /  1029.3hPa Calm   1.0mph /  1.6km/h 42% 0.00in /  0mm 0.0 W/m2
21:44 64.0 °F /  17.8 °C 40.5 °F /  4.7 °C 30.40in /  1029.3hPa Calm     42% 0.00in /  0mm 0.0 W/m2
21:50 63.7 °F /  17.6 °C 40.8 °F /  4.9 °C 30.40in /  1029.3hPa Calm   2.0mph /  3.2km/h 43% 0.00in /  0mm 0.0 W/m2
21:56 63.7 °F /  17.6 °C 40.1 °F /  4.5 °C 30.40in /  1029.3hPa Calm   1.0mph /  1.6km/h 42% 0.00in /  0mm 0.0 W/m2
22:03 63.5 °F /  17.5 °C 39.9 °F /  4.4 °C 30.40in /  1029.3hPa Calm   1.0mph /  1.6km/h 42% 0.00in /  0mm 0.0 W/m2
22:09 63.3 °F /  17.4 °C 39.2 °F /  4 °C 30.40in /  1029.3hPa Calm   1.0mph /  1.6km/h 41% 0.00in /  0mm 0.0 W/m2
22:15 63.3 °F /  17.4 °C 39.9 °F /  4.4 °C 30.40in /  1029.3hPa Calm     42% 0.00in /  0mm 0.0 W/m2
22:21 63.1 °F /  17.3 °C 39.7 °F /  4.3 °C 30.40in /  1029.3hPa Calm     42% 0.00in /  0mm 0.0 W/m2
22:27 63.1 °F /  17.3 °C 39.7 °F /  4.3 °C 30.40in /  1029.3hPa ESE 0.9mph /  1.4km/h 1.0mph /  1.6km/h 42% 0.00in /  0mm 0.0 W/m2
22:33 63.1 °F /  17.3 °C 39.7 °F /  4.3 °C 30.40in /  1029.3hPa NE 0.9mph /  1.4km/h 2.0mph /  3.2km/h 42% 0.00in /  0mm 0.0 W/m2
22:39 63.1 °F /  17.3 °C 40.3 °F /  4.6 °C 30.40in /  1029.3hPa Calm   4.0mph /  6.4km/h 43% 0.00in /  0mm 0.0 W/m2
22:45 63.0 °F /  17.2 °C 40.1 °F /  4.5 °C 30.40in /  1029.3hPa Calm   3.0mph /  4.8km/h 43% 0.00in /  0mm 0.0 W/m2
22:51 62.8 °F /  17.1 °C 40.5 °F /  4.7 °C 30.40in /  1029.3hPa Calm   1.0mph /  1.6km/h 44% 0.00in /  0mm 0.0 W/m2
22:59 62.8 °F /  17.1 °C 40.5 °F /  4.7 °C 30.40in /  1029.3hPa Calm   3.0mph /  4.8km/h 44% 0.00in /  0mm 0.0 W/m2
23:05 62.4 °F /  16.9 °C 40.3 °F /  4.6 °C 30.40in /  1029.3hPa Calm   2.0mph /  3.2km/h 44% 0.00in /  0mm 0.0 W/m2
23:11 62.2 °F /  16.8 °C 40.6 °F /  4.8 °C 30.39in /  1029hPa Calm   4.0mph /  6.4km/h 45% 0.00in /  0mm 0.0 W/m2
23:17 62.1 °F /  16.7 °C 40.5 °F /  4.7 °C 30.40in /  1029.3hPa East 2.0mph /  3.2km/h 3.0mph /  4.8km/h 45% 0.00in /  0mm 0.0 W/m2
23:23 61.9 °F /  16.6 °C 40.3 °F /  4.6 °C 30.39in /  1029hPa Calm   3.0mph /  4.8km/h 45% 0.00in /  0mm 0.0 W/m2
23:29 61.5 °F /  16.4 °C 39.9 °F /  4.4 °C 30.40in /  1029.3hPa SE 0.9mph /  1.4km/h 3.0mph /  4.8km/h 45% 0.00in /  0mm 0.0 W/m2
23:35 61.3 °F /  16.3 °C 39.7 °F /  4.3 °C 30.40in /  1029.3hPa ENE 0.9mph /  1.4km/h 2.0mph /  3.2km/h 45% 0.00in /  0mm 0.0 W/m2
23:41 61.3 °F /  16.3 °C 39.7 °F /  4.3 °C 30.40in /  1029.3hPa Calm     45% 0.00in /  0mm 0.0 W/m2
23:47 61.2 °F /  16.2 °C 39.7 °F /  4.3 °C 30.40in /  1029.3hPa ESE 0.9mph /  1.4km/h 3.0mph /  4.8km/h 45% 0.00in /  0mm 0.0 W/m2
23:53 61.0 °F /  16.1 °C 39.6 °F /  4.2 °C 30.39in /  1029hPa Calm   2.0mph /  3.2km/h 45% 0.00in /  0mm 0.0 W/m2
23:59 60.6 °F /  15.9 °C 39.7 °F /  4.3 °C 30.39in /  1029hPa ESE 2.0mph /  3.2km/h 2.0mph /  3.2km/h 46% 0.00in /  0mm 0.0 W/m2
Olympia, Windhoek, Namibia
Compliments of Weather Underground - 3 mb